createdAt,value
2023-05-08T00:01:48.596Z,6.93
2023-05-08T00:04:17.959Z,6.13
2023-05-08T00:06:47.096Z,5.85
2023-05-08T00:09:16.288Z,5.93
2023-05-08T00:11:45.774Z,5.30
2023-05-08T00:14:16.551Z,5.85
2023-05-08T00:16:45.797Z,5.72
2023-05-08T00:19:14.893Z,5.68
2023-05-08T00:21:43.972Z,5.40
2023-05-08T00:24:13.174Z,5.50
2023-05-08T00:26:44.464Z,5.57
2023-05-08T00:29:13.577Z,5.32
2023-05-08T00:31:44.164Z,5.65
2023-05-08T00:34:13.367Z,5.97
2023-05-08T00:36:42.666Z,7.05
2023-05-08T00:39:11.647Z,6.32
2023-05-08T00:41:40.960Z,6.45
2023-05-08T00:44:10.002Z,6.85
2023-05-08T00:46:39.970Z,7.90
2023-05-08T00:49:13.310Z,5.65
2023-05-08T00:51:43.670Z,6.20
2023-05-08T00:54:13.403Z,6.60
2023-05-08T00:56:43.053Z,6.03
2023-05-08T00:59:15.147Z,6.22
2023-05-08T01:01:47.846Z,6.47
2023-05-08T01:04:21.463Z,5.68
2023-05-08T01:06:51.643Z,6.22
2023-05-08T01:09:21.013Z,7.07
2023-05-08T01:11:55.854Z,6.85
2023-05-08T01:14:33.618Z,6.70
2023-05-08T01:17:10.964Z,6.10
2023-05-08T01:20:03.056Z,6.38
2023-05-08T01:22:56.092Z,6.60
2023-05-08T01:25:53.864Z,6.70
2023-05-08T01:29:01.282Z,5.93
2023-05-08T01:31:44.076Z,6.90
2023-05-08T01:34:22.627Z,6.20
2023-05-08T01:36:56.115Z,6.07
2023-05-08T01:39:41.610Z,6.20
2023-05-08T01:42:15.508Z,6.63
2023-05-08T01:44:50.684Z,7.45
2023-05-08T01:47:21.931Z,7.90
2023-05-08T01:50:01.843Z,5.45
2023-05-08T01:52:34.618Z,6.43
2023-05-08T01:55:06.944Z,6.78
2023-05-08T01:57:43.206Z,6.50
2023-05-08T02:00:13.703Z,7.28
2023-05-08T02:02:45.030Z,6.38
2023-05-08T02:05:17.570Z,7.70
2023-05-08T02:07:50.720Z,7.82
2023-05-08T02:10:22.268Z,7.60
2023-05-08T02:12:51.640Z,7.22
2023-05-08T02:15:22.397Z,6.72
2023-05-08T02:17:54.162Z,6.18
2023-05-08T02:20:24.867Z,7.65
2023-05-08T02:22:53.883Z,7.25
2023-05-08T02:25:23.844Z,7.22
2023-05-08T02:27:55.725Z,6.55
2023-05-08T02:30:26.717Z,7.60
2023-05-08T02:32:59.736Z,7.03
2023-05-08T02:35:33.612Z,6.38
2023-05-08T02:38:03.756Z,6.57
2023-05-08T02:40:33.803Z,6.45
2023-05-08T02:43:02.991Z,7.97
2023-05-08T02:45:41.080Z,7.28
2023-05-08T02:48:15.498Z,6.90
2023-05-08T02:50:55.902Z,7.82
2023-05-08T02:53:32.835Z,6.82
2023-05-08T02:56:09.582Z,8.05
2023-05-08T02:58:45.609Z,7.90
2023-05-08T03:01:23.087Z,7.35
2023-05-08T03:04:01.092Z,6.78
2023-05-08T03:06:38.970Z,7.85
2023-05-08T03:09:13.854Z,7.78
2023-05-08T03:11:44.984Z,8.25
2023-05-08T03:14:20.900Z,7.47
2023-05-08T03:16:51.731Z,9.30
2023-05-08T03:19:25.285Z,8.18
2023-05-08T03:21:57.329Z,7.78
2023-05-08T03:24:28.170Z,8.90
2023-05-08T03:26:59.268Z,7.88
2023-05-08T03:29:29.527Z,7.55
2023-05-08T03:32:02.358Z,7.35
2023-05-08T03:34:32.617Z,8.32
2023-05-08T03:37:03.178Z,7.80
2023-05-08T03:39:32.173Z,8.35
2023-05-08T03:42:01.601Z,8.88
2023-05-08T03:44:33.562Z,8.18
2023-05-08T03:47:03.618Z,7.80
2023-05-08T03:49:34.555Z,9.52
2023-05-08T03:52:05.376Z,7.53
2023-05-08T03:54:34.281Z,8.30
2023-05-08T03:57:03.413Z,8.80
2023-05-08T03:59:43.400Z,7.82
2023-05-08T04:02:26.896Z,7.53
2023-05-08T04:05:03.434Z,6.70
2023-05-08T04:07:44.154Z,6.80
2023-05-08T04:10:19.301Z,7.18
2023-05-08T04:12:56.433Z,7.10
2023-05-08T04:15:28.391Z,7.50
2023-05-08T04:18:05.103Z,7.20
2023-05-08T04:20:35.179Z,7.80
2023-05-08T04:23:07.109Z,6.00
2023-05-08T04:25:40.073Z,6.20
2023-05-08T04:28:09.605Z,6.70
2023-05-08T04:30:40.528Z,8.50
2023-05-08T04:33:10.468Z,7.07
2023-05-08T04:35:40.062Z,7.93
2023-05-08T04:38:11.188Z,6.77
2023-05-08T04:40:40.327Z,6.50
2023-05-08T04:43:10.524Z,6.03
2023-05-08T04:45:40.038Z,6.10
2023-05-08T04:48:09.112Z,5.50
2023-05-08T04:50:38.245Z,6.70
2023-05-08T04:53:07.429Z,6.10
2023-05-08T04:55:38.230Z,6.07
2023-05-08T04:58:07.348Z,5.47
2023-05-08T05:00:37.146Z,6.40
2023-05-08T05:03:06.443Z,5.20
2023-05-08T05:05:38.890Z,5.30
2023-05-08T05:08:08.909Z,6.83
2023-05-08T05:10:40.166Z,5.40
2023-05-08T05:13:09.489Z,6.00
2023-05-08T05:15:38.321Z,6.00
2023-05-08T05:18:07.485Z,6.17
2023-05-08T05:20:37.345Z,5.60
2023-05-08T05:23:06.865Z,5.67
2023-05-08T05:25:38.078Z,6.73
2023-05-08T05:28:07.377Z,5.80
2023-05-08T05:30:36.379Z,6.25
2023-05-08T05:33:06.342Z,5.70
2023-05-08T05:35:35.867Z,6.13
2023-05-08T05:38:05.537Z,7.07
2023-05-08T05:40:34.742Z,6.35
2023-05-08T05:43:05.152Z,6.25
2023-05-08T05:45:34.253Z,5.90
2023-05-08T05:48:05.540Z,5.68
2023-05-08T05:50:35.660Z,5.93
2023-05-08T05:53:04.737Z,5.38
2023-05-08T05:55:34.359Z,5.07
2023-05-08T05:58:05.702Z,4.38
2023-05-08T06:00:35.749Z,5.60
2023-05-08T06:03:05.667Z,6.05
2023-05-08T06:05:34.877Z,5.15
2023-05-08T06:08:03.927Z,5.35
2023-05-08T06:10:33.126Z,5.05
2023-05-08T06:13:02.357Z,5.40
2023-05-08T06:15:33.399Z,5.03
2023-05-08T06:18:02.436Z,4.70
2023-05-08T06:20:31.373Z,4.57
2023-05-08T06:23:00.492Z,4.55
2023-05-08T06:25:29.474Z,3.85
2023-05-08T06:27:58.376Z,5.40
2023-05-08T06:30:27.425Z,3.90
2023-05-08T06:32:57.910Z,4.45
2023-05-08T06:35:26.940Z,4.38
2023-05-08T06:37:55.972Z,4.10
2023-05-08T06:40:25.166Z,3.90
2023-05-08T06:42:54.298Z,5.17
2023-05-08T06:45:23.372Z,4.00
2023-05-08T06:47:52.247Z,4.30
2023-05-08T06:50:23.021Z,3.57
2023-05-08T06:53:01.091Z,3.60
2023-05-08T06:55:32.385Z,3.80
2023-05-08T06:58:03.175Z,3.27
2023-05-08T07:00:33.671Z,3.80
2023-05-08T07:03:06.035Z,3.27
2023-05-08T07:05:38.095Z,3.60
2023-05-08T07:08:13.344Z,3.80
2023-05-08T07:10:43.503Z,2.70
2023-05-08T07:13:15.218Z,4.13
2023-05-08T07:15:46.510Z,4.00
2023-05-08T07:18:17.400Z,3.50
2023-05-08T07:20:49.695Z,3.80
2023-05-08T07:23:20.934Z,3.33
2023-05-08T07:25:52.323Z,3.80
2023-05-08T07:28:23.184Z,3.60
2023-05-08T07:30:53.649Z,3.57
2023-05-08T07:33:24.666Z,3.90
2023-05-08T07:35:57.008Z,3.60
2023-05-08T07:38:28.260Z,3.43
2023-05-08T07:41:00.069Z,3.43
2023-05-08T07:43:32.339Z,4.40
2023-05-08T07:46:03.515Z,4.37
2023-05-08T07:48:34.976Z,3.53
2023-05-08T07:51:09.267Z,3.37
2023-05-08T07:53:40.506Z,3.20
2023-05-08T07:56:13.682Z,3.40
2023-05-08T07:58:46.922Z,4.03
2023-05-08T08:01:19.393Z,3.87
2023-05-08T08:03:52.501Z,3.20
2023-05-08T08:06:26.848Z,5.10
2023-05-08T08:08:58.778Z,3.23
2023-05-08T08:11:30.130Z,4.47
2023-05-08T08:14:01.805Z,6.10
2023-05-08T08:16:32.979Z,5.43
2023-05-08T08:19:04.013Z,4.30
2023-05-08T08:21:37.198Z,3.53
2023-05-08T08:24:08.298Z,3.77
2023-05-08T08:26:40.260Z,3.90
2023-05-08T08:29:12.286Z,3.10
2023-05-08T08:31:43.016Z,3.13
2023-05-08T08:34:14.382Z,2.97
2023-05-08T08:36:46.152Z,3.03
2023-05-08T08:39:16.694Z,3.60
2023-05-08T08:41:51.693Z,3.40
2023-05-08T08:44:22.890Z,3.10
2023-05-08T08:46:55.207Z,3.33
2023-05-08T08:49:32.902Z,3.67
2023-05-08T08:52:09.858Z,3.03
2023-05-08T08:54:42.571Z,3.27
2023-05-08T08:57:14.339Z,3.70
2023-05-08T08:59:46.485Z,2.60
2023-05-08T09:02:18.568Z,2.83
2023-05-08T09:04:51.671Z,3.23
2023-05-08T09:07:24.642Z,2.50
2023-05-08T09:09:55.437Z,2.77
2023-05-08T09:12:28.726Z,3.10
2023-05-08T09:14:58.644Z,2.80
2023-05-08T09:17:28.837Z,2.90
2023-05-08T09:19:59.028Z,4.07
2023-05-08T09:22:32.325Z,2.97
2023-05-08T09:25:04.014Z,2.40
2023-05-08T09:27:34.986Z,2.20
2023-05-08T09:30:06.495Z,3.30
2023-05-08T09:32:37.392Z,2.30
2023-05-08T09:35:09.221Z,2.87
2023-05-08T09:37:43.772Z,3.20
2023-05-08T09:40:20.442Z,2.93
2023-05-08T09:42:51.669Z,2.53
2023-05-08T09:45:31.992Z,2.83
2023-05-08T09:48:03.526Z,3.33
2023-05-08T09:50:34.645Z,3.13
2023-05-08T09:53:06.170Z,2.40
2023-05-08T09:55:50.164Z,3.13
2023-05-08T09:58:20.531Z,3.03
2023-05-08T10:00:50.549Z,2.77
2023-05-08T10:03:21.780Z,2.13
2023-05-08T10:05:51.327Z,2.57
2023-05-08T10:08:25.528Z,2.03
2023-05-08T10:10:55.188Z,2.50
2023-05-08T10:13:26.351Z,2.70
2023-05-08T10:15:59.417Z,2.80
2023-05-08T10:18:38.102Z,2.80
2023-05-08T10:21:10.467Z,3.30
2023-05-08T10:23:43.774Z,2.03
2023-05-08T10:26:18.101Z,2.97
2023-05-08T10:28:57.955Z,2.57
2023-05-08T10:31:29.857Z,2.73
2023-05-08T10:34:00.641Z,2.80
2023-05-08T10:36:32.069Z,2.23
2023-05-08T10:39:03.878Z,2.60
2023-05-08T10:41:34.326Z,2.60
2023-05-08T10:44:04.623Z,3.07
2023-05-08T10:46:42.858Z,2.40
2023-05-08T10:49:21.934Z,2.37
2023-05-08T10:52:03.044Z,2.40
2023-05-08T10:54:44.017Z,3.50
2023-05-08T10:57:14.334Z,2.77
2023-05-08T10:59:48.334Z,2.67
2023-05-08T11:02:18.375Z,2.70
2023-05-08T11:04:48.597Z,2.40
2023-05-08T11:07:19.108Z,2.30
2023-05-08T11:09:50.385Z,2.50
2023-05-08T11:12:28.538Z,2.40
2023-05-08T11:15:03.948Z,2.90
2023-05-08T11:17:33.574Z,2.00
2023-05-08T11:20:04.573Z,2.70
2023-05-08T11:22:35.182Z,2.30
2023-05-08T11:25:09.645Z,3.70
2023-05-08T11:27:58.024Z,2.47
2023-05-08T11:30:38.784Z,2.20
2023-05-08T11:33:16.677Z,2.60
2023-05-08T11:35:52.226Z,2.70
2023-05-08T11:38:24.699Z,1.90
2023-05-08T11:41:01.741Z,3.20
2023-05-08T11:44:14.894Z,2.53
2023-05-08T11:46:54.345Z,2.50
2023-05-08T11:49:29.540Z,2.97
2023-05-08T11:52:01.612Z,2.77
2023-05-08T11:54:35.401Z,2.23
2023-05-08T11:57:06.404Z,1.90
2023-05-08T11:59:38.194Z,2.00
2023-05-08T12:02:09.742Z,3.00
2023-05-08T12:04:47.151Z,2.60
2023-05-08T12:07:17.243Z,2.80
2023-05-08T12:09:48.786Z,2.20
2023-05-08T12:12:19.393Z,2.60
2023-05-08T12:14:52.377Z,1.93
2023-05-08T12:17:21.979Z,2.20
2023-05-08T12:19:56.871Z,2.40
2023-05-08T12:22:26.298Z,3.00
2023-05-08T12:24:56.274Z,3.80
2023-05-08T12:27:29.789Z,2.00
2023-05-08T12:30:00.269Z,2.20
2023-05-08T12:32:29.959Z,2.70
2023-05-08T12:35:02.656Z,2.10
2023-05-08T12:37:32.167Z,2.27
2023-05-08T12:40:02.773Z,3.50
2023-05-08T12:42:46.902Z,2.57
2023-05-08T12:45:20.509Z,2.33
2023-05-08T12:47:51.531Z,2.70
2023-05-08T12:50:25.876Z,2.33
2023-05-08T12:52:55.872Z,2.80
2023-05-08T12:55:27.034Z,2.50
2023-05-08T12:58:05.850Z,2.90
2023-05-08T13:00:40.374Z,2.70
2023-05-08T13:03:13.791Z,2.23
2023-05-08T13:05:44.955Z,2.77
2023-05-08T13:08:14.718Z,2.70
2023-05-08T13:11:00.958Z,2.93
2023-05-08T13:13:33.651Z,1.90
2023-05-08T13:16:06.643Z,2.27
2023-05-08T13:18:37.561Z,3.13
2023-05-08T13:21:07.435Z,2.33
2023-05-08T13:23:36.814Z,2.20
2023-05-08T13:26:06.374Z,2.00
2023-05-08T13:28:37.416Z,2.60
2023-05-08T13:31:10.033Z,2.37
2023-05-08T13:33:39.147Z,2.43
2023-05-08T13:36:08.477Z,2.60
2023-05-08T13:38:37.387Z,1.80
2023-05-08T13:41:06.296Z,2.50
2023-05-08T13:43:36.966Z,3.60
2023-05-08T13:46:06.920Z,2.53
2023-05-08T13:48:36.250Z,2.33
2023-05-08T13:51:05.590Z,2.40
2023-05-08T13:53:37.829Z,2.30
2023-05-08T13:56:07.461Z,3.50
2023-05-08T13:58:37.924Z,3.10
2023-05-08T14:01:21.812Z,3.30
2023-05-08T14:03:55.456Z,3.57
2023-05-08T14:06:24.876Z,3.67
2023-05-08T14:08:57.093Z,3.83
2023-05-08T14:11:27.247Z,3.47
2023-05-08T14:13:57.708Z,6.20
2023-05-08T14:16:26.837Z,3.77
2023-05-08T14:18:56.045Z,2.80
2023-05-08T14:21:25.218Z,3.80
2023-05-08T14:23:54.093Z,3.27
2023-05-08T14:26:23.305Z,3.30
2023-05-08T14:28:52.299Z,4.33
2023-05-08T14:31:22.892Z,3.47
2023-05-08T14:33:51.844Z,4.10
2023-05-08T14:36:20.986Z,3.30
2023-05-08T14:38:50.113Z,2.10
2023-05-08T14:41:19.074Z,2.87
2023-05-08T14:43:50.386Z,2.00
2023-05-08T14:46:19.444Z,2.87
2023-05-08T14:48:50.005Z,3.00
2023-05-08T14:51:20.015Z,2.37
2023-05-08T14:53:49.149Z,2.47
2023-05-08T14:56:18.866Z,3.10
2023-05-08T14:58:48.142Z,2.70
2023-05-08T15:01:17.160Z,2.20
2023-05-08T15:03:53.224Z,2.53
2023-05-08T15:06:28.818Z,2.60
2023-05-08T15:08:58.151Z,2.60
2023-05-08T15:11:27.569Z,2.50
2023-05-08T15:13:57.065Z,2.50
2023-05-08T15:16:26.239Z,3.00
2023-05-08T15:18:55.573Z,2.33
2023-05-08T15:21:27.828Z,3.10
2023-05-08T15:23:57.978Z,4.00
2023-05-08T15:26:27.770Z,3.20
2023-05-08T15:28:57.109Z,4.13
2023-05-08T15:31:26.234Z,2.90
2023-05-08T15:33:55.401Z,3.30
2023-05-08T15:36:28.216Z,2.63
2023-05-08T15:38:57.534Z,3.07
2023-05-08T15:41:26.682Z,3.27
2023-05-08T15:43:55.982Z,2.40
2023-05-08T15:46:25.224Z,3.00
2023-05-08T15:48:54.219Z,2.70
2023-05-08T15:51:24.936Z,3.10
2023-05-08T15:53:54.003Z,2.53
2023-05-08T15:56:24.732Z,2.40
2023-05-08T15:58:54.706Z,2.83
2023-05-08T16:01:23.749Z,3.10
2023-05-08T16:03:52.960Z,2.83
2023-05-08T16:06:22.763Z,3.50
2023-05-08T16:08:53.442Z,2.80
2023-05-08T16:11:22.977Z,3.20
2023-05-08T16:13:53.202Z,4.20
2023-05-08T16:16:22.436Z,3.27
2023-05-08T16:18:51.563Z,3.40
2023-05-08T16:21:21.438Z,4.13
2023-05-08T16:23:53.341Z,3.57
2023-05-08T16:26:22.730Z,3.10
2023-05-08T16:28:51.835Z,3.20
2023-05-08T16:31:20.766Z,3.60
2023-05-08T16:33:49.757Z,3.33
2023-05-08T16:36:18.627Z,3.30
2023-05-08T16:38:47.549Z,3.53
2023-05-08T16:41:18.116Z,3.10
2023-05-08T16:43:47.009Z,4.07
2023-05-08T16:46:17.502Z,2.90
2023-05-08T16:48:49.902Z,3.10
2023-05-08T16:51:18.717Z,3.20
2023-05-08T16:53:48.125Z,3.40
2023-05-08T16:56:18.625Z,4.37
2023-05-08T16:58:48.781Z,4.00
2023-05-08T17:01:18.045Z,4.30
2023-05-08T17:03:47.034Z,3.57
2023-05-08T17:06:16.180Z,4.40
2023-05-08T17:08:45.305Z,5.10
2023-05-08T17:11:15.598Z,3.10
2023-05-08T17:13:47.014Z,3.27
2023-05-08T17:16:17.702Z,4.03
2023-05-08T17:18:48.252Z,4.20
2023-05-08T17:21:17.209Z,4.30
2023-05-08T17:23:46.928Z,4.37
2023-05-08T17:26:15.761Z,3.90
2023-05-08T17:28:45.918Z,4.17
2023-05-08T17:31:16.014Z,4.27
2023-05-08T17:33:45.170Z,3.53
2023-05-08T17:36:14.184Z,3.07
2023-05-08T17:38:46.033Z,4.30
2023-05-08T17:41:15.154Z,3.60
2023-05-08T17:43:45.524Z,3.93
2023-05-08T17:46:14.510Z,3.83
2023-05-08T17:48:43.348Z,4.37
2023-05-08T17:51:14.003Z,3.53
2023-05-08T17:53:42.916Z,3.10
2023-05-08T17:56:12.327Z,3.23
2023-05-08T17:58:41.224Z,3.30
2023-05-08T18:01:11.449Z,2.80
2023-05-08T18:03:40.505Z,3.13
2023-05-08T18:06:09.719Z,2.57
2023-05-08T18:08:40.110Z,4.20
2023-05-08T18:11:17.966Z,4.80
2023-05-08T18:13:47.069Z,3.47
2023-05-08T18:16:18.918Z,3.03
2023-05-08T18:18:48.388Z,2.97
2023-05-08T18:21:17.326Z,3.70
2023-05-08T18:23:46.318Z,3.23
2023-05-08T18:26:15.886Z,3.23
2023-05-08T18:28:47.943Z,3.60
2023-05-08T18:31:18.361Z,3.23
2023-05-08T18:33:47.233Z,2.83
2023-05-08T18:36:15.993Z,3.40
2023-05-08T18:38:44.968Z,4.07
2023-05-08T18:41:14.060Z,3.43
2023-05-08T18:43:42.985Z,3.10
2023-05-08T18:46:14.560Z,3.60
2023-05-08T18:48:44.949Z,4.10
2023-05-08T18:51:13.936Z,3.40
2023-05-08T18:53:42.836Z,3.80
2023-05-08T18:56:12.840Z,3.47
2023-05-08T18:58:49.248Z,3.07
2023-05-08T19:01:22.489Z,3.20
2023-05-08T19:03:56.782Z,4.33
2023-05-08T19:06:26.481Z,3.57
2023-05-08T19:08:58.693Z,3.30
2023-05-08T19:11:28.119Z,3.23
2023-05-08T19:13:57.365Z,3.20
2023-05-08T19:16:27.073Z,3.50
2023-05-08T19:19:00.797Z,2.83
2023-05-08T19:21:32.711Z,3.60
2023-05-08T19:24:02.513Z,3.60
2023-05-08T19:26:31.608Z,3.20
2023-05-08T19:29:00.676Z,3.13
2023-05-08T19:31:30.355Z,4.20
2023-05-08T19:34:00.822Z,4.10
2023-05-08T19:36:29.960Z,3.40
2023-05-08T19:38:59.246Z,4.10
2023-05-08T19:41:28.175Z,6.03
2023-05-08T19:43:57.082Z,4.07
2023-05-08T19:46:26.073Z,3.60
2023-05-08T19:48:55.019Z,4.03
2023-05-08T19:51:25.804Z,3.43
2023-05-08T19:53:54.654Z,3.73
2023-05-08T19:56:23.850Z,3.67
2023-05-08T19:58:52.880Z,3.87
2023-05-08T20:01:21.693Z,3.07
2023-05-08T20:03:50.860Z,3.70
2023-05-08T20:06:19.759Z,3.77
2023-05-08T20:08:50.008Z,3.80
2023-05-08T20:11:18.962Z,3.73
2023-05-08T20:13:47.899Z,3.97
2023-05-08T20:16:17.685Z,4.20
2023-05-08T20:18:46.885Z,3.67
2023-05-08T20:21:15.738Z,4.17
2023-05-08T20:23:44.617Z,3.57
2023-05-08T20:26:14.830Z,3.67
2023-05-08T20:28:43.686Z,3.80
2023-05-08T20:31:12.500Z,3.80
2023-05-08T20:33:41.292Z,4.60
2023-05-08T20:36:10.862Z,4.40
2023-05-08T20:38:39.900Z,4.23
2023-05-08T20:41:19.005Z,3.57
2023-05-08T20:43:47.828Z,5.13
2023-05-08T20:46:16.808Z,4.10
2023-05-08T20:48:45.912Z,4.60
2023-05-08T20:51:15.943Z,4.07
2023-05-08T20:53:45.345Z,3.40
2023-05-08T20:56:18.664Z,3.93
2023-05-08T20:58:49.365Z,5.40
2023-05-08T21:01:20.718Z,4.10
2023-05-08T21:03:50.152Z,3.50
2023-05-08T21:06:19.099Z,4.17
2023-05-08T21:08:48.136Z,3.73
2023-05-08T21:11:17.029Z,4.80
2023-05-08T21:13:49.370Z,4.03
2023-05-08T21:16:18.400Z,3.80
2023-05-08T21:18:47.183Z,4.33
2023-05-08T21:21:17.223Z,4.10
2023-05-08T21:23:46.053Z,4.13
2023-05-08T21:26:15.766Z,4.13
2023-05-08T21:28:44.947Z,4.10
2023-05-08T21:31:16.270Z,4.30
2023-05-08T21:33:45.493Z,3.83
2023-05-08T21:36:14.359Z,4.70
2023-05-08T21:38:43.535Z,4.77
2023-05-08T21:41:13.428Z,4.57
2023-05-08T21:43:42.471Z,4.57
2023-05-08T21:46:11.256Z,3.53
2023-05-08T21:48:42.104Z,4.60
2023-05-08T21:51:12.401Z,5.00
2023-05-08T21:53:41.381Z,4.33
2023-05-08T21:56:10.333Z,4.00
2023-05-08T21:58:39.145Z,3.83
2023-05-08T22:01:07.966Z,5.13
2023-05-08T22:03:37.103Z,4.63
2023-05-08T22:06:10.190Z,4.57
2023-05-08T22:08:40.069Z,3.53
2023-05-08T22:11:08.910Z,4.10
2023-05-08T22:13:37.685Z,4.13
2023-05-08T22:16:07.727Z,4.03
2023-05-08T22:18:36.666Z,4.50
2023-05-08T22:21:07.291Z,4.60
2023-05-08T22:23:36.164Z,4.80
2023-05-08T22:26:05.528Z,4.80
2023-05-08T22:28:34.658Z,4.70
2023-05-08T22:31:03.935Z,4.87
2023-05-08T22:33:34.336Z,4.33
2023-05-08T22:36:03.684Z,3.93
2023-05-08T22:38:37.856Z,4.32
2023-05-08T22:41:07.653Z,4.00
2023-05-08T22:43:37.374Z,4.90
2023-05-08T22:46:07.201Z,4.53
2023-05-08T22:48:39.392Z,4.60
2023-05-08T22:51:09.812Z,4.03
2023-05-08T22:53:40.363Z,4.27
2023-05-08T22:56:09.863Z,4.13
2023-05-08T22:58:39.339Z,3.83
2023-05-08T23:01:13.209Z,5.20
2023-05-08T23:03:44.131Z,5.20
2023-05-08T23:06:13.400Z,4.00
2023-05-08T23:08:46.419Z,5.22
2023-05-08T23:11:15.672Z,4.77
2023-05-08T23:13:44.984Z,5.05
2023-05-08T23:16:19.830Z,4.40
2023-05-08T23:18:49.340Z,4.10
2023-05-08T23:21:25.108Z,5.20
2023-05-08T23:23:57.108Z,5.47
2023-05-08T23:26:26.330Z,4.40
2023-05-08T23:28:58.333Z,5.35
2023-05-08T23:31:27.536Z,5.30
2023-05-08T23:33:56.803Z,5.15
2023-05-08T23:36:26.146Z,4.22
2023-05-08T23:38:56.868Z,4.93
2023-05-08T23:41:26.979Z,5.28
2023-05-08T23:43:59.338Z,5.03
2023-05-08T23:46:28.646Z,4.55
2023-05-08T23:49:01.229Z,4.63
2023-05-08T23:51:30.422Z,4.50
2023-05-08T23:54:01.272Z,4.90
2023-05-08T23:56:30.905Z,4.82
2023-05-08T23:58:59.957Z,4.47
